PAFR METAR and TAF weather

Enter ICAO airport designator
Station Type Date Time Source
PAFR METAR 2022/08/16 17:56 UTC NOAA

PAFR 161756Z AUTO 00000KT 9SM SCT065 BKN100 OVC180 11/10 A2968 RMK AO2 RAE34 SLP056 P0001 60004 T01140101 10120 20102 57019 VISNO RWY35 CHINO RWY35 $


Station Type Date Time Source
PAFR Decoded METAR 2022/08/16 17:56 UTC NOAA

Ft. Richardson / Bryant U. S. Army Heliport, Ak, AK, United States (PAFR) 61-16N 149-39W 115M
Aug 16, 2022 - 01:56 PM EDT / 2022.08.16 1756 UTC
Wind: Calm:0
Visibility: 9 mile(s):0
Sky conditions: overcast
Precipitation last hour: 0.01 inches
Temperature: 52.5 F (11.4 C)
Dew Point: 50.2 F (10.1 C)
Relative Humidity: 91%
Pressure (altimeter): 29.68 in. Hg (1005 hPa)
Pressure tendency: 0.06 inches (1.9 hPa) lower than three hours ago
ob: PAFR 161756Z AUTO 00000KT 9SM SCT065 BKN100 OVC180 11/10 A2968 RMK AO2 RAE34 SLP056 P0001 60004 T01140101 10120 20102 57019 VISNO RWY35 CHINO RWY35
cycle: 18

Station Type Date Time Source
PAFR TAF UTC NOAA

Error!

Example: see airport list